createdAt,value
2022-08-10T00:01:52.259Z,17.58
2022-08-10T00:04:21.636Z,17.65
2022-08-10T00:06:50.295Z,17.59
2022-08-10T00:09:16.938Z,17.54
2022-08-10T00:11:43.537Z,17.54
2022-08-10T00:14:10.103Z,17.46
2022-08-10T00:16:36.747Z,17.41
2022-08-10T00:19:03.395Z,17.40
2022-08-10T00:21:30.037Z,17.38
2022-08-10T00:23:56.694Z,17.39
2022-08-10T00:26:23.360Z,17.39
2022-08-10T00:28:49.936Z,17.34
2022-08-10T00:31:16.591Z,17.37
2022-08-10T00:33:43.218Z,17.31
2022-08-10T00:36:09.993Z,17.25
2022-08-10T00:38:37.657Z,17.20
2022-08-10T00:41:04.436Z,17.19
2022-08-10T00:43:30.990Z,17.16
2022-08-10T00:45:58.998Z,17.12
2022-08-10T00:48:28.918Z,17.08
2022-08-10T00:50:55.672Z,17.06
2022-08-10T00:53:22.270Z,17.00
2022-08-10T00:57:15.049Z,16.98
2022-08-10T00:58:37.468Z,16.99
2022-08-10T01:01:06.180Z,16.98
2022-08-10T01:04:36.531Z,16.94
2022-08-10T01:06:32.272Z,16.92
2022-08-10T01:09:03.007Z,16.88
2022-08-10T01:12:39.169Z,16.86
2022-08-10T01:14:35.490Z,16.82
2022-08-10T01:17:11.630Z,16.82
2022-08-10T01:19:57.366Z,16.75
2022-08-10T01:22:45.819Z,16.71
2022-08-10T01:26:11.442Z,16.70
2022-08-10T01:28:47.885Z,16.67
2022-08-10T01:31:19.381Z,16.61
2022-08-10T01:34:02.284Z,16.56
2022-08-10T01:36:34.854Z,16.52
2022-08-10T01:39:03.904Z,16.53
2022-08-10T01:41:51.363Z,16.52
2022-08-10T01:44:30.138Z,16.54
2022-08-10T01:47:23.575Z,16.58
2022-08-10T01:49:54.672Z,16.64
2022-08-10T01:52:23.562Z,16.63
2022-08-10T01:54:52.037Z,16.60
2022-08-10T01:57:20.858Z,16.55
2022-08-10T01:59:54.557Z,16.53
2022-08-10T02:02:33.703Z,16.52
2022-08-10T02:05:02.408Z,16.51
2022-08-10T02:07:30.693Z,16.54
2022-08-10T02:10:09.200Z,16.55
2022-08-10T02:12:36.273Z,16.50
2022-08-10T02:15:11.166Z,16.44
2022-08-10T02:17:59.679Z,16.39
2022-08-10T02:20:31.871Z,16.38
2022-08-10T02:23:09.910Z,16.38
2022-08-10T02:25:41.099Z,16.38
2022-08-10T02:28:10.260Z,16.52
2022-08-10T02:30:37.459Z,16.45
2022-08-10T02:33:04.777Z,16.41
2022-08-10T02:35:44.996Z,16.35
2022-08-10T02:38:23.279Z,16.31
2022-08-10T02:42:18.677Z,16.23
2022-08-10T02:45:27.431Z,16.24
2022-08-10T02:47:12.375Z,16.27
2022-08-10T02:49:42.233Z,16.27
2022-08-10T02:52:17.767Z,16.33
2022-08-10T02:54:51.277Z,16.34
2022-08-10T02:57:25.558Z,16.41
2022-08-10T02:59:54.355Z,16.44
2022-08-10T03:02:30.953Z,16.47
2022-08-10T03:05:05.524Z,16.49
2022-08-10T03:07:43.104Z,16.52
2022-08-10T03:10:17.690Z,16.49
2022-08-10T03:12:47.672Z,16.49
2022-08-10T03:15:15.736Z,16.47
2022-08-10T03:17:56.931Z,16.45
2022-08-10T03:20:37.830Z,16.40
2022-08-10T03:23:10.913Z,16.36
2022-08-10T03:25:38.405Z,16.36
2022-08-10T03:28:05.852Z,16.31
2022-08-10T03:30:34.322Z,16.27
2022-08-10T03:33:03.308Z,16.21
2022-08-10T03:35:30.174Z,16.18
2022-08-10T03:38:00.021Z,16.13
2022-08-10T03:40:44.896Z,16.04
2022-08-10T03:43:18.112Z,15.96
2022-08-10T03:45:55.936Z,15.95
2022-08-10T03:48:32.338Z,15.97
2022-08-10T03:51:14.722Z,15.94
2022-08-10T03:54:05.814Z,15.94
2022-08-10T03:56:31.904Z,15.90
2022-08-10T03:58:59.579Z,15.84
2022-08-10T04:02:46.399Z,15.84
2022-08-10T04:04:17.557Z,15.88
2022-08-10T04:06:47.362Z,15.92
2022-08-10T04:09:18.289Z,15.94
2022-08-10T04:11:44.827Z,15.93
2022-08-10T04:14:38.832Z,15.94
2022-08-10T04:16:58.123Z,15.87
2022-08-10T04:19:25.860Z,15.84
2022-08-10T04:21:59.767Z,15.89
2022-08-10T04:24:27.142Z,15.93
2022-08-10T04:27:00.525Z,16.04
2022-08-10T04:29:27.311Z,16.06
2022-08-10T04:31:53.897Z,16.03
2022-08-10T04:34:20.717Z,16.00
2022-08-10T04:36:49.814Z,15.97
2022-08-10T04:39:17.299Z,16.00
2022-08-10T04:41:47.486Z,16.02
2022-08-10T04:44:14.455Z,16.08
2022-08-10T04:46:56.005Z,16.04
2022-08-10T04:49:55.190Z,15.99
2022-08-10T04:52:11.885Z,15.99
2022-08-10T04:54:38.676Z,15.99
2022-08-10T04:57:06.098Z,16.01
2022-08-10T04:59:32.709Z,16.01
2022-08-10T05:02:21.592Z,16.08
2022-08-10T05:04:45.858Z,16.11
2022-08-10T05:07:15.808Z,16.16
2022-08-10T05:10:02.468Z,16.17
2022-08-10T05:12:32.531Z,16.16
2022-08-10T05:15:04.323Z,16.20
2022-08-10T05:17:30.897Z,16.24
2022-08-10T05:20:03.757Z,16.30
2022-08-10T05:22:37.208Z,16.49
2022-08-10T05:25:05.203Z,16.57
2022-08-10T05:27:31.957Z,16.66
2022-08-10T05:30:01.398Z,16.76
2022-08-10T05:32:30.739Z,16.77
2022-08-10T05:34:57.802Z,16.85
2022-08-10T05:38:09.834Z,16.95
2022-08-10T05:40:12.014Z,17.03
2022-08-10T05:42:39.639Z,17.06
2022-08-10T05:45:09.431Z,17.07
2022-08-10T05:48:57.401Z,17.12
2022-08-10T05:50:26.834Z,17.19
2022-08-10T05:52:54.297Z,17.28
2022-08-10T05:55:22.644Z,17.31
2022-08-10T05:57:49.426Z,17.40
2022-08-10T06:00:37.424Z,17.49
2022-08-10T06:03:08.273Z,17.74
2022-08-10T06:05:37.259Z,17.85
2022-08-10T06:08:31.585Z,18.07
2022-08-10T06:12:26.180Z,18.27
2022-08-10T06:14:13.680Z,18.35
2022-08-10T06:16:43.748Z,18.58
2022-08-10T06:19:15.457Z,18.70
2022-08-10T06:21:46.856Z,18.60
2022-08-10T06:24:33.764Z,18.64
2022-08-10T06:27:05.466Z,18.79
2022-08-10T06:29:34.514Z,19.04
2022-08-10T06:32:01.909Z,19.26
2022-08-10T06:34:47.539Z,19.56
2022-08-10T06:37:16.772Z,19.58
2022-08-10T06:39:44.310Z,19.85
2022-08-10T06:42:19.696Z,20.06
2022-08-10T06:44:55.731Z,20.22
2022-08-10T06:47:25.638Z,20.33
2022-08-10T06:49:59.957Z,20.58
2022-08-10T06:52:31.078Z,20.63
2022-08-10T06:54:58.817Z,20.73
2022-08-10T06:57:28.964Z,20.86
2022-08-10T06:59:57.814Z,20.90
2022-08-10T07:02:54.039Z,20.94
2022-08-10T07:05:22.823Z,21.20
2022-08-10T07:07:51.334Z,21.33
2022-08-10T07:10:20.034Z,21.35
2022-08-10T07:12:51.706Z,21.46
2022-08-10T07:15:18.989Z,21.71
2022-08-10T07:17:46.427Z,21.77
2022-08-10T07:20:18.696Z,21.86
2022-08-10T07:23:05.905Z,21.99
2022-08-10T07:25:35.402Z,22.12
2022-08-10T07:28:03.056Z,22.24
2022-08-10T07:30:31.865Z,22.33
2022-08-10T07:33:00.773Z,22.32
2022-08-10T07:35:30.710Z,22.25
2022-08-10T07:38:03.010Z,22.35
2022-08-10T07:40:31.984Z,22.44
2022-08-10T07:42:59.937Z,22.42
2022-08-10T07:45:29.026Z,22.52
2022-08-10T07:48:07.809Z,22.55
2022-08-10T07:50:36.620Z,22.73
2022-08-10T07:53:04.604Z,22.85
2022-08-10T07:56:04.107Z,22.88
2022-08-10T07:58:20.652Z,22.94
2022-08-10T08:00:48.559Z,23.17
2022-08-10T08:03:16.027Z,23.30
2022-08-10T08:05:58.101Z,23.59
2022-08-10T08:08:30.565Z,23.96
2022-08-10T08:10:58.185Z,24.16
2022-08-10T08:13:25.179Z,24.15
2022-08-10T08:16:17.581Z,24.26
2022-08-10T08:18:45.766Z,24.40
2022-08-10T08:24:05.429Z,24.67
2022-08-10T08:24:31.515Z,24.77
2022-08-10T08:27:01.359Z,24.85
2022-08-10T08:29:28.408Z,24.95
2022-08-10T08:32:01.597Z,24.96
2022-08-10T08:34:31.774Z,25.08
2022-08-10T08:37:00.795Z,25.22
2022-08-10T08:39:27.643Z,25.51
2022-08-10T08:42:00.604Z,25.72
2022-08-10T08:45:04.796Z,25.25
2022-08-10T08:48:03.987Z,25.31
2022-08-10T08:50:56.734Z,25.78
2022-08-10T08:53:23.912Z,26.14
2022-08-10T08:56:24.846Z,26.15
2022-08-10T08:59:06.200Z,25.63
2022-08-10T09:01:44.908Z,25.98
2022-08-10T09:04:30.133Z,26.33
2022-08-10T09:08:00.964Z,26.15
2022-08-10T09:10:12.954Z,26.48
2022-08-10T09:12:55.017Z,26.71
2022-08-10T09:15:40.625Z,26.79
2022-08-10T09:18:28.947Z,26.83
2022-08-10T09:21:03.555Z,26.62
2022-08-10T09:24:01.843Z,27.07
2022-08-10T09:26:48.279Z,27.10
2022-08-10T09:29:31.855Z,27.26
2022-08-10T09:36:15.958Z,27.31
2022-08-10T09:36:22.292Z,27.38
2022-08-10T09:38:07.285Z,27.49
2022-08-10T09:41:00.266Z,27.87
2022-08-10T09:43:52.822Z,27.36
2022-08-10T09:46:48.885Z,27.39
2022-08-10T09:49:22.451Z,26.99
2022-08-10T09:52:08.316Z,27.09
2022-08-10T09:54:53.870Z,27.27
2022-08-10T09:57:43.944Z,27.23
2022-08-10T10:00:18.253Z,27.04
2022-08-10T10:02:58.496Z,26.85
2022-08-10T10:05:39.022Z,27.20
2022-08-10T10:08:25.442Z,27.10
2022-08-10T10:11:24.211Z,27.01
2022-08-10T10:14:12.774Z,27.00
2022-08-10T10:16:48.525Z,26.96
2022-08-10T10:19:43.181Z,27.11
2022-08-10T10:22:28.446Z,27.02
2022-08-10T10:25:19.886Z,27.08
2022-08-10T10:28:09.632Z,27.02
2022-08-10T10:30:44.747Z,26.90
2022-08-10T10:33:33.598Z,26.54
2022-08-10T10:36:02.085Z,26.75
2022-08-10T10:38:35.350Z,26.77
2022-08-10T10:41:31.666Z,26.86
2022-08-10T10:44:25.638Z,27.11
2022-08-10T10:47:14.690Z,27.10
2022-08-10T10:49:54.428Z,27.03
2022-08-10T10:52:46.767Z,27.12
2022-08-10T10:55:50.041Z,27.09
2022-08-10T10:58:39.535Z,27.10
2022-08-10T11:01:18.766Z,27.04
2022-08-10T11:03:56.243Z,26.99
2022-08-10T11:06:40.743Z,26.64
2022-08-10T11:10:05.994Z,26.83
2022-08-10T11:12:11.006Z,26.90
2022-08-10T11:15:10.576Z,27.04
2022-08-10T11:17:37.353Z,27.30
2022-08-10T11:20:18.582Z,27.17
2022-08-10T11:23:08.301Z,27.17
2022-08-10T11:25:45.208Z,26.97
2022-08-10T11:28:37.409Z,27.11
2022-08-10T11:31:12.175Z,27.07
2022-08-10T11:34:11.522Z,27.46
2022-08-10T11:36:55.255Z,27.58
2022-08-10T11:39:34.894Z,27.21
2022-08-10T11:42:17.371Z,27.18
2022-08-10T11:44:57.291Z,27.17
2022-08-10T11:47:30.063Z,27.26
2022-08-10T11:50:03.749Z,27.61
2022-08-10T11:52:48.586Z,27.66
2022-08-10T11:55:24.117Z,27.31
2022-08-10T11:58:00.863Z,27.44
2022-08-10T12:00:32.415Z,27.55
2022-08-10T12:03:02.998Z,27.26
2022-08-10T12:05:53.068Z,27.37
2022-08-10T12:10:08.577Z,27.00
2022-08-10T12:11:24.058Z,26.93
2022-08-10T12:14:20.805Z,27.10
2022-08-10T12:16:51.655Z,27.58
2022-08-10T12:19:58.599Z,27.74
2022-08-10T12:22:21.763Z,27.77
2022-08-10T12:25:00.440Z,27.51
2022-08-10T12:27:32.432Z,27.54
2022-08-10T12:30:06.341Z,27.81
2022-08-10T12:32:44.075Z,27.80
2022-08-10T12:35:35.629Z,27.71
2022-08-10T12:38:02.154Z,27.51
2022-08-10T12:40:35.543Z,27.44
2022-08-10T12:44:06.394Z,27.57
2022-08-10T12:46:06.479Z,27.91
2022-08-10T12:48:43.934Z,27.95
2022-08-10T12:51:19.346Z,27.74
2022-08-10T12:54:31.909Z,27.53
2022-08-10T12:57:04.668Z,27.60
2022-08-10T12:59:32.440Z,27.67
2022-08-10T13:02:07.024Z,27.62
2022-08-10T13:04:38.493Z,27.37
2022-08-10T13:07:05.853Z,27.26
2022-08-10T13:09:34.623Z,26.85
2022-08-10T13:12:38.798Z,26.76
2022-08-10T13:15:28.263Z,26.96
2022-08-10T13:18:05.569Z,27.25
2022-08-10T13:20:37.061Z,27.33
2022-08-10T13:23:10.727Z,27.37
2022-08-10T13:25:39.529Z,27.31
2022-08-10T13:28:37.854Z,27.22
2022-08-10T13:30:55.678Z,27.24
2022-08-10T13:34:38.754Z,27.30
2022-08-10T13:36:14.533Z,27.57
2022-08-10T13:38:43.873Z,27.49
2022-08-10T13:41:11.450Z,27.13
2022-08-10T13:43:49.402Z,27.46
2022-08-10T13:46:22.709Z,27.46
2022-08-10T13:48:53.366Z,27.50
2022-08-10T13:51:56.970Z,27.63
2022-08-10T13:54:13.725Z,27.28
2022-08-10T13:56:44.136Z,27.37
2022-08-10T13:59:12.937Z,27.15
2022-08-10T14:01:51.047Z,26.78
2022-08-10T14:04:18.983Z,27.00
2022-08-10T14:06:53.381Z,27.34
2022-08-10T14:09:26.301Z,27.36
2022-08-10T14:11:54.206Z,27.46
2022-08-10T14:14:21.854Z,27.39
2022-08-10T14:16:49.155Z,27.43
2022-08-10T14:19:28.083Z,27.21
2022-08-10T14:21:56.127Z,27.28
2022-08-10T14:24:27.750Z,27.61
2022-08-10T14:27:10.569Z,27.56
2022-08-10T14:29:46.818Z,27.56
2022-08-10T14:32:16.565Z,27.89
2022-08-10T14:36:15.161Z,27.95
2022-08-10T14:37:38.226Z,27.77
2022-08-10T14:40:06.957Z,27.81
2022-08-10T14:42:54.542Z,27.78
2022-08-10T14:45:25.145Z,28.00
2022-08-10T14:47:59.653Z,27.92
2022-08-10T14:50:32.475Z,28.14
2022-08-10T14:53:09.173Z,27.86
2022-08-10T14:55:59.429Z,27.97
2022-08-10T14:58:29.959Z,28.23
2022-08-10T15:00:58.153Z,28.27
2022-08-10T15:03:58.738Z,28.35
2022-08-10T15:06:18.338Z,28.44
2022-08-10T15:08:47.188Z,28.52
2022-08-10T15:12:15.857Z,28.58
2022-08-10T15:14:33.952Z,28.49
2022-08-10T15:16:49.787Z,28.40
2022-08-10T15:20:01.698Z,28.51
2022-08-10T15:22:18.092Z,28.40
2022-08-10T15:25:06.586Z,28.41
2022-08-10T15:27:54.966Z,28.35
2022-08-10T15:30:30.389Z,28.31
2022-08-10T15:33:21.061Z,28.60
2022-08-10T15:36:28.238Z,28.22
2022-08-10T15:39:05.122Z,28.51
2022-08-10T15:41:59.409Z,28.48
2022-08-10T15:44:56.159Z,28.61
2022-08-10T15:47:45.662Z,28.60
2022-08-10T15:50:24.002Z,28.50
2022-08-10T15:53:00.902Z,28.51
2022-08-10T15:55:47.642Z,28.22
2022-08-10T15:58:37.614Z,28.29
2022-08-10T16:02:04.188Z,28.05
2022-08-10T16:04:08.578Z,28.31
2022-08-10T16:06:49.280Z,28.06
2022-08-10T16:10:23.425Z,28.23
2022-08-10T16:12:16.127Z,28.12
2022-08-10T16:14:46.432Z,28.01
2022-08-10T16:17:13.488Z,27.83
2022-08-10T16:19:55.431Z,27.83
2022-08-10T16:22:34.187Z,27.77
2022-08-10T16:25:12.114Z,27.39
2022-08-10T16:27:39.191Z,27.55
2022-08-10T16:30:06.533Z,27.96
2022-08-10T16:32:34.123Z,29.34
2022-08-10T16:35:02.378Z,30.58
2022-08-10T16:37:58.703Z,31.54
2022-08-10T16:40:26.184Z,31.34
2022-08-10T16:42:53.470Z,29.96
2022-08-10T16:45:50.675Z,28.50
2022-08-10T16:48:48.604Z,27.75
2022-08-10T16:51:09.169Z,27.24
2022-08-10T16:53:43.559Z,26.98
2022-08-10T16:56:15.153Z,26.78
2022-08-10T16:58:45.707Z,26.61
2022-08-10T17:01:17.331Z,26.44
2022-08-10T17:04:07.985Z,26.33
2022-08-10T17:06:41.390Z,26.25
2022-08-10T17:09:15.088Z,26.28
2022-08-10T17:11:46.654Z,26.26
2022-08-10T17:14:13.715Z,26.23
2022-08-10T17:16:45.525Z,26.27
2022-08-10T17:19:14.481Z,26.18
2022-08-10T17:21:51.766Z,26.09
2022-08-10T17:24:21.566Z,25.93
2022-08-10T17:26:48.617Z,25.73
2022-08-10T17:29:57.642Z,25.60
2022-08-10T17:32:20.186Z,25.48
2022-08-10T17:34:50.616Z,25.40
2022-08-10T17:37:20.472Z,25.39
2022-08-10T17:39:55.003Z,24.89
2022-08-10T17:42:23.394Z,24.52
2022-08-10T17:44:52.529Z,24.41
2022-08-10T17:47:19.702Z,24.43
2022-08-10T17:49:47.190Z,24.35
2022-08-10T17:52:19.314Z,24.48
2022-08-10T17:54:45.777Z,24.58
2022-08-10T17:57:18.779Z,24.55
2022-08-10T17:59:47.007Z,24.69
2022-08-10T18:02:18.646Z,24.61
2022-08-10T18:04:54.057Z,24.46
2022-08-10T18:07:23.267Z,24.39
2022-08-10T18:09:51.756Z,24.41
2022-08-10T18:12:32.114Z,24.35
2022-08-10T18:15:05.678Z,24.35
2022-08-10T18:17:39.314Z,24.42
2022-08-10T18:20:08.078Z,24.35
2022-08-10T18:22:39.649Z,24.06
2022-08-10T18:25:07.429Z,23.78
2022-08-10T18:28:00.897Z,23.53
2022-08-10T18:30:21.823Z,23.59
2022-08-10T18:32:51.058Z,23.45
2022-08-10T18:35:18.539Z,23.33
2022-08-10T18:37:50.171Z,23.19
2022-08-10T18:40:17.754Z,23.34
2022-08-10T18:42:44.495Z,23.21
2022-08-10T18:45:14.867Z,23.11
2022-08-10T18:48:09.284Z,23.03
2022-08-10T18:50:51.211Z,22.78
2022-08-10T18:53:25.906Z,22.73
2022-08-10T18:56:10.060Z,22.58
2022-08-10T18:58:38.764Z,22.59
2022-08-10T19:01:26.669Z,22.42
2022-08-10T19:04:02.726Z,22.43
2022-08-10T19:06:55.482Z,22.43
2022-08-10T19:09:46.237Z,22.44
2022-08-10T19:12:31.087Z,22.64
2022-08-10T19:15:22.966Z,22.67
2022-08-10T19:18:13.984Z,22.51
2022-08-10T19:21:19.512Z,22.57
2022-08-10T19:24:15.422Z,22.74
2022-08-10T19:27:17.584Z,22.79
2022-08-10T19:30:12.993Z,22.88
2022-08-10T19:33:05.581Z,22.94
2022-08-10T19:36:03.176Z,22.76
2022-08-10T19:38:50.340Z,22.82
2022-08-10T19:41:32.736Z,22.87
2022-08-10T19:44:21.035Z,22.90
2022-08-10T19:47:06.176Z,22.71
2022-08-10T19:49:42.786Z,22.66
2022-08-10T19:52:47.166Z,22.44
2022-08-10T19:55:34.051Z,22.18
2022-08-10T19:58:03.593Z,22.07
2022-08-10T20:00:49.252Z,22.02
2022-08-10T20:03:15.789Z,21.97
2022-08-10T20:06:13.408Z,21.85
2022-08-10T20:08:59.594Z,21.83
2022-08-10T20:11:46.338Z,21.83
2022-08-10T20:14:22.809Z,21.87
2022-08-10T20:16:51.621Z,21.89
2022-08-10T20:19:53.080Z,22.03
2022-08-10T20:22:19.649Z,21.96
2022-08-10T20:25:13.911Z,21.87
2022-08-10T20:28:01.696Z,21.95
2022-08-10T20:30:36.152Z,21.89
2022-08-10T20:33:11.262Z,21.73
2022-08-10T20:35:43.858Z,21.65
2022-08-10T20:38:15.965Z,21.46
2022-08-10T20:40:54.036Z,21.27
2022-08-10T20:43:26.575Z,21.08
2022-08-10T20:46:07.838Z,21.09
2022-08-10T20:48:45.621Z,21.13
2022-08-10T20:51:19.655Z,21.02
2022-08-10T20:53:56.435Z,20.88
2022-08-10T20:56:48.797Z,20.66
2022-08-10T21:00:02.399Z,20.51
2022-08-10T21:03:07.035Z,20.25
2022-08-10T21:05:56.250Z,20.09
2022-08-10T21:08:45.017Z,19.93
2022-08-10T21:11:17.669Z,19.87
2022-08-10T21:14:02.768Z,19.81
2022-08-10T21:16:48.181Z,19.80
2022-08-10T21:19:38.666Z,19.76
2022-08-10T21:22:11.515Z,19.60
2022-08-10T21:24:53.588Z,19.49
2022-08-10T21:27:38.220Z,19.46
2022-08-10T21:30:16.063Z,19.36
2022-08-10T21:33:03.592Z,19.33
2022-08-10T21:35:38.543Z,19.25
2022-08-10T21:38:47.137Z,19.13
2022-08-10T21:45:07.836Z,19.23
2022-08-10T21:48:16.656Z,19.45
2022-08-10T21:51:09.349Z,19.41
2022-08-10T21:54:27.704Z,19.12
2022-08-10T21:57:43.165Z,18.96
2022-08-10T22:00:32.149Z,18.94
2022-08-10T22:03:18.891Z,19.03
2022-08-10T22:06:12.925Z,19.14
2022-08-10T22:09:03.614Z,19.17
2022-08-10T22:11:51.853Z,19.03
2022-08-10T22:14:50.887Z,19.01
2022-08-10T22:18:01.285Z,18.97
2022-08-10T22:20:45.666Z,18.83
2022-08-10T22:23:41.858Z,18.63
2022-08-10T22:27:02.566Z,18.47
2022-08-10T22:29:54.179Z,18.39
2022-08-10T22:31:28.874Z,19.01
2022-08-10T22:33:06.930Z,18.27
2022-08-10T22:36:29.980Z,18.27
2022-08-10T22:40:11.430Z,18.19
2022-08-10T22:42:58.128Z,18.14
2022-08-10T22:45:44.958Z,18.08
2022-08-10T22:48:31.009Z,18.09
2022-08-10T22:51:11.943Z,18.13
2022-08-10T22:54:02.076Z,18.10
2022-08-10T22:56:47.383Z,18.06
2022-08-10T22:59:27.021Z,18.06
2022-08-10T23:02:10.610Z,18.02
2022-08-10T23:04:45.251Z,17.91
2022-08-10T23:07:17.804Z,17.75
2022-08-10T23:10:07.700Z,17.72
2022-08-10T23:12:52.924Z,17.56
2022-08-10T23:15:42.279Z,17.56
2022-08-10T23:18:31.561Z,17.62
2022-08-10T23:20:59.727Z,17.65
2022-08-10T23:23:28.629Z,17.50
2022-08-10T23:25:56.397Z,17.48
2022-08-10T23:28:38.203Z,17.53
2022-08-10T23:31:12.380Z,17.52
2022-08-10T23:33:41.045Z,17.48
2022-08-10T23:36:34.302Z,17.40
2022-08-10T23:39:24.530Z,17.45
2022-08-10T23:41:53.012Z,17.37
2022-08-10T23:44:21.335Z,17.32
2022-08-10T23:46:48.810Z,17.29
2022-08-10T23:49:15.761Z,17.31
2022-08-10T23:51:55.315Z,17.24
2022-08-10T23:54:24.170Z,17.15
2022-08-10T23:56:54.156Z,17.14
2022-08-10T23:59:23.015Z,17.09
